Time;durP1;ratioP1;P1;durP2;ratioP2;P2;SDS_P1;SDS_P2;PMS_P1;PMS_P2;Temp;Humidity;BMP_temperature;BMP_pressure;BME280_temperature;BME280_humidity;BME280_pressure;Samples;Min_cycle;Max_cycle;Signal;HPM_P1;HPM_P2
2021/03/06 00:01:16;;;;;;;;;;;;;;;20.96;49.72;102701.72;2086899;28;1694;-76
2021/03/06 00:02:42;;;;;;;;;;;;;;;20.97;49.78;102702.56;2090259;28;1689;-76
2021/03/06 00:04:09;;;;;;;;;;;;;;;20.97;49.68;102711.09;2086233;28;1704;-75
2021/03/06 00:05:35;;;;;;;;;;;;;;;20.95;49.86;102708.56;2090808;28;1986;-75
2021/03/06 00:07:01;;;;;;;;;;;;;;;20.95;49.69;102708.56;2089394;28;1708;-74
2021/03/06 00:08:27;;;;;;;;;;;;;;;20.95;49.71;102711.41;2086194;28;1692;-73
2021/03/06 00:09:53;;;;;;;;;;;;;;;20.95;49.83;102713.38;2091272;28;1981;-74
2021/03/06 00:11:19;;;;;;;;;;;;;;;20.95;49.82;102710.53;2090228;28;1695;-73
2021/03/06 00:12:45;;;;;;;;;;;;;;;20.95;49.67;102711.41;2091088;28;1648;-73
2021/03/06 00:14:11;;;;;;;;;;;;;;;20.95;49.82;102710.53;2089739;28;1700;-74
2021/03/06 00:15:37;;;;;;;;;;;;;;;20.94;49.74;102706.00;2089488;28;1740;-75
2021/03/06 00:17:03;;;;;;;;;;;;;;;20.95;49.58;102716.22;2090883;28;2560;-74
2021/03/06 00:18:29;;;;;;;;;;;;;;;20.95;49.41;102713.38;2086528;28;875;-74
2021/03/06 00:19:55;;;;;;;;;;;;;;;20.94;49.62;102706.00;2090139;28;1988;-74
2021/03/06 00:21:21;;;;;;;;;;;;;;;20.95;49.65;102708.56;2082741;28;688;-74
2021/03/06 00:22:50;;;;;;;;;;;;;;;20.93;49.74;102696.63;2089720;28;1786;-74
2021/03/06 00:24:16;;;;;;;;;;;;;;;20.94;49.76;102704.00;2088136;28;1686;-74
2021/03/06 00:25:42;;;;;;;;;;;;;;;20.94;49.73;102708.88;2085593;28;939;-74
2021/03/06 00:27:08;;;;;;;;;;;;;;;20.94;49.64;102709.69;2090973;28;885;-74
2021/03/06 00:28:34;;;;;;;;;;;;;;;20.94;49.71;102706.00;2090064;28;2062;-74
2021/03/06 00:30:00;;;;;;;;;;;;;;;20.94;49.78;102708.88;2088661;28;2254;-74
2021/03/06 00:31:27;;;;;;;;;;;;;;;20.94;49.78;102709.69;2089487;28;1696;-74
2021/03/06 00:32:53;;;;;;;;;;;;;;;20.95;49.85;102710.53;2089231;28;1692;-74
2021/03/06 00:34:19;;;;;;;;;;;;;;;20.95;49.77;102710.53;2090901;28;1707;-74
2021/03/06 00:35:45;;;;;;;;;;;;;;;20.94;49.89;102706.00;2083129;28;951;-74
2021/03/06 00:37:11;;;;;;;;;;;;;;;20.95;49.84;102705.72;2090723;28;1822;-75
2021/03/06 00:38:37;;;;;;;;;;;;;;;20.95;49.82;102710.53;2091236;28;653;-75
2021/03/06 00:40:03;;;;;;;;;;;;;;;20.93;49.85;102705.16;2089491;28;1967;-74
2021/03/06 00:41:29;;;;;;;;;;;;;;;20.94;49.93;102709.69;2090859;28;1493;-75
2021/03/06 00:42:56;;;;;;;;;;;;;;;20.95;49.78;102710.53;2089230;28;1787;-75
2021/03/06 00:44:22;;;;;;;;;;;;;;;20.94;50.06;102704.00;2090708;28;1541;-75
2021/03/06 00:45:48;;;;;;;;;;;;;;;20.95;50.14;102702.88;2091032;28;990;-75
2021/03/06 00:47:14;;;;;;;;;;;;;;;20.96;50.12;102703.72;2091173;28;1013;-74
2021/03/06 00:48:40;;;;;;;;;;;;;;;20.95;50.25;102699.16;2089276;28;1715;-74
2021/03/06 00:50:06;;;;;;;;;;;;;;;20.95;50.06;102702.88;2089993;28;1623;-74
2021/03/06 00:51:32;;;;;;;;;;;;;;;20.95;50.24;102699.16;2086642;28;1645;-74
2021/03/06 00:53:06;;;;;;;;;;;;;;;20.95;50.13;102699.16;2087541;28;1982;-74
2021/03/06 00:54:32;;;;;;;;;;;;;;;20.94;50.25;102698.31;2090623;28;1267;-74
2021/03/06 00:55:58;;;;;;;;;;;;;;;20.95;50.17;102704.84;2086871;28;1692;-75
2021/03/06 00:57:24;;;;;;;;;;;;;;;20.95;50.14;102699.16;2082761;28;940;-73
2021/03/06 00:58:51;;;;;;;;;;;;;;;20.95;50.27;102699.16;2089178;28;1699;-77
2021/03/06 01:00:17;;;;;;;;;;;;;;;20.94;50.30;102697.47;2086960;28;1969;-77
2021/03/06 01:01:43;;;;;;;;;;;;;;;20.94;50.30;102701.16;2090215;28;1701;-77
2021/03/06 01:03:09;;;;;;;;;;;;;;;20.94;50.31;102698.31;2088011;28;1732;-76
2021/03/06 01:04:35;;;;;;;;;;;;;;;20.94;50.36;102698.31;2086325;28;1711;-77
2021/03/06 01:06:01;;;;;;;;;;;;;;;20.95;50.10;102696.31;2085971;28;991;-77
2021/03/06 01:07:27;;;;;;;;;;;;;;;20.94;50.32;102694.63;2085956;28;1759;-77
2021/03/06 01:08:53;;;;;;;;;;;;;;;20.94;50.18;102697.47;2088880;28;1664;-77
2021/03/06 01:10:19;;;;;;;;;;;;;;;20.94;50.11;102697.47;2087981;28;2115;-77
2021/03/06 01:11:45;;;;;;;;;;;;;;;20.93;50.06;102688.09;2083915;28;1244;-77
2021/03/06 01:13:11;;;;;;;;;;;;;;;20.93;50.17;102690.94;2086729;28;2057;-76
2021/03/06 01:14:37;;;;;;;;;;;;;;;20.94;50.17;102691.78;2085284;28;1704;-78
2021/03/06 01:16:03;;;;;;;;;;;;;;;20.93;50.32;102695.78;2090677;28;1699;-78
2021/03/06 01:17:29;;;;;;;;;;;;;;;20.91;50.33;102696.09;2089470;28;1698;-79
2021/03/06 01:18:56;;;;;;;;;;;;;;;20.88;50.11;102694.69;2090853;28;1939;-76
2021/03/06 01:20:22;;;;;;;;;;;;;;;20.89;50.17;102690.69;2088796;28;1898;-79
2021/03/06 01:21:48;;;;;;;;;;;;;;;20.89;49.96;102692.69;2090312;28;1803;-81
2021/03/06 01:23:31;;;;;;;;;;;;;;;20.88;50.07;102691.84;2089130;28;1739;-75
2021/03/06 01:24:57;;;;;;;;;;;;;;;20.87;49.88;102693.03;2089654;28;1577;-75
2021/03/06 01:26:23;;;;;;;;;;;;;;;20.88;50.04;102685.31;2089008;28;1292;-75
2021/03/06 01:27:49;;;;;;;;;;;;;;;20.89;49.97;102687.00;2087744;28;1868;-74
2021/03/06 01:29:15;;;;;;;;;;;;;;;20.88;49.99;102682.47;2090639;28;1709;-76
2021/03/06 01:30:41;;;;;;;;;;;;;;;20.87;49.82;102681.63;2090113;28;1087;-77
2021/03/06 01:32:07;;;;;;;;;;;;;;;20.87;49.79;102681.63;2085424;28;1526;-77
2021/03/06 01:33:33;;;;;;;;;;;;;;;20.90;49.70;102674.50;2090428;28;2019;-77
2021/03/06 01:34:59;;;;;;;;;;;;;;;20.88;49.82;102674.78;2088877;28;1840;-78
2021/03/06 01:36:25;;;;;;;;;;;;;;;20.87;49.76;102675.94;2087908;28;1594;-78
2021/03/06 01:37:51;;;;;;;;;;;;;;;20.87;49.87;102686.50;2088850;28;1720;-78
2021/03/06 01:39:17;;;;;;;;;;;;;;;20.87;49.78;102677.97;2085335;28;1557;-78
2021/03/06 01:40:43;;;;;;;;;;;;;;;20.87;49.75;102675.13;2090385;28;1906;-78
2021/03/06 01:42:09;;;;;;;;;;;;;;;20.85;49.91;102666.88;2085642;28;980;-79
2021/03/06 01:43:35;;;;;;;;;;;;;;;20.86;49.76;102676.25;2086019;28;1649;-79
2021/03/06 01:45:01;;;;;;;;;;;;;;;20.86;49.90;102673.41;2086276;28;1502;-79
2021/03/06 01:46:28;;;;;;;;;;;;;;;20.86;49.77;102673.41;2089043;28;1736;-82
2021/03/06 01:47:54;;;;;;;;;;;;;;;20.85;49.73;102672.56;2089501;28;874;-76
2021/03/06 01:49:20;;;;;;;;;;;;;;;20.85;49.74;102672.56;2089524;28;1644;-76
2021/03/06 01:50:46;;;;;;;;;;;;;;;20.85;49.70;102664.03;2088867;28;2111;-77
2021/03/06 01:52:13;;;;;;;;;;;;;;;20.84;49.97;102675.69;2087531;28;901;-76
2021/03/06 01:53:52;;;;;;;;;;;;;;;20.84;49.76;102675.69;2088881;28;1716;-76
2021/03/06 01:55:18;;;;;;;;;;;;;;;20.83;49.86;102674.84;2087145;28;1703;-76
2021/03/06 01:56:44;;;;;;;;;;;;;;;20.84;49.80;102679.41;2089650;28;1879;-76
2021/03/06 01:58:10;;;;;;;;;;;;;;;20.83;49.72;102677.69;2089929;28;1747;-76
2021/03/06 01:59:36;;;;;;;;;;;;;;;20.82;49.84;102676.03;2088059;28;1757;-76
2021/03/06 02:01:02;;;;;;;;;;;;;;;20.82;49.82;102678.88;2089093;28;1910;-76
2021/03/06 02:02:28;;;;;;;;;;;;;;;20.82;49.75;102684.56;2087044;28;909;-76
2021/03/06 02:03:54;;;;;;;;;;;;;;;20.82;49.91;102687.41;2089966;28;712;-75
2021/03/06 02:05:20;;;;;;;;;;;;;;;20.82;49.85;102683.72;2088363;28;1747;-75
2021/03/06 02:06:46;;;;;;;;;;;;;;;20.81;49.85;102682.84;2089438;28;1569;-75
2021/03/06 02:08:12;;;;;;;;;;;;;;;20.81;49.69;102680.00;2090606;28;1717;-76
2021/03/06 02:09:38;;;;;;;;;;;;;;;20.81;49.74;102673.47;2086690;28;1972;-76
2021/03/06 02:11:04;;;;;;;;;;;;;;;20.82;49.67;102678.03;2089344;28;1748;-76
2021/03/06 02:12:30;;;;;;;;;;;;;;;20.81;49.91;102676.31;2083804;28;959;-77
2021/03/06 02:13:56;;;;;;;;;;;;;;;20.80;49.80;102675.47;2082540;28;990;-76
2021/03/06 02:15:22;;;;;;;;;;;;;;;20.79;49.83;102670.09;2086174;28;1760;-74
2021/03/06 02:16:48;;;;;;;;;;;;;;;20.80;49.66;102677.47;2089691;28;1664;-75
2021/03/06 02:18:15;;;;;;;;;;;;;;;20.79;49.83;102679.47;2088640;28;1685;-74
2021/03/06 02:19:41;;;;;;;;;;;;;;;20.79;49.73;102670.94;2084444;28;1714;-77
2021/03/06 02:21:07;;;;;;;;;;;;;;;20.79;49.89;102673.78;2090287;28;1902;-76
2021/03/06 02:22:33;;;;;;;;;;;;;;;20.78;49.70;102669.25;2090652;28;676;-76
2021/03/06 02:24:15;;;;;;;;;;;;;;;20.79;49.80;102670.94;2085823;28;1558;-76
2021/03/06 02:25:41;;;;;;;;;;;;;;;20.78;49.66;102668.41;2082655;28;960;-76
2021/03/06 02:27:07;;;;;;;;;;;;;;;20.78;49.76;102669.25;2085513;28;1716;-74
2021/03/06 02:28:33;;;;;;;;;;;;;;;20.78;49.75;102660.69;2086396;28;1535;-75
2021/03/06 02:29:59;;;;;;;;;;;;;;;20.78;49.76;102662.72;2085815;28;2343;-74
2021/03/06 02:31:25;;;;;;;;;;;;;;;20.78;49.84;102665.56;2090827;28;1856;-76
2021/03/06 02:32:51;;;;;;;;;;;;;;;20.78;49.44;102657.84;2085683;28;1630;-77
2021/03/06 02:34:18;;;;;;;;;;;;;;;20.77;49.72;102666.72;2089623;28;1732;-77
2021/03/06 02:35:44;;;;;;;;;;;;;;;20.78;49.91;102665.56;2088496;28;1649;-76
2021/03/06 02:37:10;;;;;;;;;;;;;;;20.77;49.71;102658.19;2088845;28;1660;-75
2021/03/06 02:38:36;;;;;;;;;;;;;;;20.76;49.82;102660.19;2090210;28;1039;-76
2021/03/06 02:40:02;;;;;;;;;;;;;;;20.75;49.74;102658.47;2088938;28;1705;-76
2021/03/06 02:41:28;;;;;;;;;;;;;;;20.76;49.58;102665.88;2090247;28;883;-76
2021/03/06 02:42:55;;;;;;;;;;;;;;;20.76;49.77;102656.47;2090106;28;1013;-73
2021/03/06 02:44:21;;;;;;;;;;;;;;;20.76;49.62;102667.84;2086932;28;1617;-73
2021/03/06 02:45:47;;;;;;;;;;;;;;;20.75;49.77;102667.00;2089649;28;1907;-74
2021/03/06 02:47:13;;;;;;;;;;;;;;;20.75;49.57;102663.31;2086800;28;1848;-74
2021/03/06 02:48:40;;;;;;;;;;;;;;;20.74;49.57;102659.63;2088882;28;1765;-75
2021/03/06 02:50:06;;;;;;;;;;;;;;;20.74;49.72;102664.50;2089272;28;1724;-74
2021/03/06 02:51:32;;;;;;;;;;;;;;;20.74;49.72;102670.19;2091969;28;907;-75
2021/03/06 02:52:58;;;;;;;;;;;;;;;20.74;49.61;102668.16;2091263;28;1572;-74
2021/03/06 02:54:38;;;;;;;;;;;;;;;20.75;49.75;102669.84;2090548;28;1699;-75
2021/03/06 02:56:04;;;;;;;;;;;;;;;20.74;49.60;102668.16;2088475;28;1720;-75
2021/03/06 02:57:30;;;;;;;;;;;;;;;20.74;49.54;102665.31;2088220;28;1574;-74
2021/03/06 02:58:56;;;;;;;;;;;;;;;20.74;49.66;102656.78;2086619;28;1629;-75
2021/03/06 03:00:22;;;;;;;;;;;;;;;20.74;49.66;102653.94;2088756;28;1903;-75
2021/03/06 03:01:48;;;;;;;;;;;;;;;20.74;49.64;102653.94;2088142;28;1725;-75
2021/03/06 03:03:14;;;;;;;;;;;;;;;20.74;49.61;102659.63;2083513;28;614;-74
2021/03/06 03:04:40;;;;;;;;;;;;;;;20.73;49.65;102652.28;2089276;28;1662;-75
2021/03/06 03:06:06;;;;;;;;;;;;;;;20.74;49.45;102655.94;2091598;28;958;-75
2021/03/06 03:07:32;;;;;;;;;;;;;;;20.73;49.43;102645.72;2088959;28;1684;-74
2021/03/06 03:08:58;;;;;;;;;;;;;;;20.73;49.39;102657.97;2091514;28;1292;-74
2021/03/06 03:10:24;;;;;;;;;;;;;;;20.75;49.43;102660.47;2091157;28;1854;-74
2021/03/06 03:11:51;;;;;;;;;;;;;;;20.73;49.49;102654.25;2087722;28;1752;-75
2021/03/06 03:13:17;;;;;;;;;;;;;;;20.72;49.41;102650.56;2091303;28;1447;-75
2021/03/06 03:14:43;;;;;;;;;;;;;;;20.73;49.37;102651.41;2090202;28;1811;-75
2021/03/06 03:16:09;;;;;;;;;;;;;;;20.72;49.35;102650.56;2084081;28;884;-75
2021/03/06 03:17:35;;;;;;;;;;;;;;;20.71;49.39;102646.03;2090347;28;2059;-75
2021/03/06 03:19:01;;;;;;;;;;;;;;;20.71;49.41;102648.03;2083663;28;1586;-75
2021/03/06 03:20:27;;;;;;;;;;;;;;;20.71;49.52;102648.03;2089871;28;1973;-76
2021/03/06 03:21:53;;;;;;;;;;;;;;;20.69;49.41;102652.00;2090649;28;1664;-75
2021/03/06 03:23:19;;;;;;;;;;;;;;;20.68;49.48;102649.50;2088881;28;1697;-76
2021/03/06 03:25:01;;;;;;;;;;;;;;;20.70;49.38;102658.53;2090235;28;1755;-75
2021/03/06 03:26:27;;;;;;;;;;;;;;;20.70;49.48;102655.69;2091552;28;947;-75
2021/03/06 03:27:53;;;;;;;;;;;;;;;20.69;49.51;102645.47;2088879;28;1690;-76
2021/03/06 03:29:19;;;;;;;;;;;;;;;20.70;49.30;102652.84;2089811;28;1771;-76
2021/03/06 03:30:45;;;;;;;;;;;;;;;20.69;49.33;102654.03;2090692;28;1708;-76
2021/03/06 03:32:11;;;;;;;;;;;;;;;20.68;49.28;102647.50;2091423;28;1632;-76
2021/03/06 03:33:37;;;;;;;;;;;;;;;20.68;49.33;102649.50;2087429;28;1645;-76
2021/03/06 03:35:03;;;;;;;;;;;;;;;20.69;49.33;102654.03;2090128;28;1762;-76
2021/03/06 03:36:29;;;;;;;;;;;;;;;20.67;49.41;102651.47;2090050;28;1742;-76
2021/03/06 03:37:56;;;;;;;;;;;;;;;20.67;49.48;102650.63;2090514;28;1931;-76
2021/03/06 03:39:22;;;;;;;;;;;;;;;20.67;49.28;102647.78;2090482;28;1637;-76
2021/03/06 03:40:48;;;;;;;;;;;;;;;20.68;49.39;102652.34;2091109;28;1906;-76
2021/03/06 03:42:14;;;;;;;;;;;;;;;20.67;49.35;102653.47;2089949;28;1752;-76
2021/03/06 03:43:40;;;;;;;;;;;;;;;20.67;49.24;102647.78;2083799;28;1028;-77
2021/03/06 03:45:06;;;;;;;;;;;;;;;20.67;49.40;102653.47;2088209;28;1549;-77
2021/03/06 03:46:32;;;;;;;;;;;;;;;20.67;49.41;102654.31;2090511;28;1706;-76
2021/03/06 03:47:58;;;;;;;;;;;;;;;20.66;49.35;102657.47;2090532;28;1871;-76
2021/03/06 03:49:24;;;;;;;;;;;;;;;20.66;49.29;102664.00;2091008;28;1271;-76
2021/03/06 03:50:50;;;;;;;;;;;;;;;20.66;49.29;102657.47;2091320;28;1770;-76
2021/03/06 03:52:17;;;;;;;;;;;;;;;20.65;49.38;102652.97;2088377;28;1558;-77
2021/03/06 03:53:43;;;;;;;;;;;;;;;20.64;49.25;102660.63;2088296;28;1698;-76
2021/03/06 03:55:23;;;;;;;;;;;;;;;20.64;49.38;102652.09;2087164;28;958;-77
2021/03/06 03:56:53;;;;;;;;;;;;;;;20.64;49.24;102652.09;2086258;28;1653;-76
2021/03/06 03:58:19;;;;;;;;;;;;;;;20.65;49.35;102664.34;2085123;28;1742;-76
2021/03/06 03:59:45;;;;;;;;;;;;;;;20.64;49.22;102656.94;2083951;28;947;-76
2021/03/06 04:01:11;;;;;;;;;;;;;;;20.65;49.33;102658.66;2086721;28;1934;-77
2021/03/06 04:02:37;;;;;;;;;;;;;;;20.63;49.30;102653.25;2087592;28;1339;-76
2021/03/06 04:04:03;;;;;;;;;;;;;;;20.64;49.29;102656.94;2089562;28;1651;-76
2021/03/06 04:05:29;;;;;;;;;;;;;;;20.64;49.40;102659.78;2091215;28;1117;-77
2021/03/06 04:06:56;;;;;;;;;;;;;;;20.63;49.25;102652.41;2089740;28;2801;-76
2021/03/06 04:08:22;;;;;;;;;;;;;;;20.63;49.26;102658.09;2089474;28;1761;-77
2021/03/06 04:09:48;;;;;;;;;;;;;;;20.63;49.27;102658.09;2086906;28;1956;-76
2021/03/06 04:11:14;;;;;;;;;;;;;;;20.63;49.35;102660.94;2083309;28;1434;-76
2021/03/06 04:12:40;;;;;;;;;;;;;;;20.62;49.32;102650.69;2089698;28;1696;-76
2021/03/06 04:14:06;;;;;;;;;;;;;;;20.62;49.43;102660.09;2088359;28;1737;-76
2021/03/06 04:15:32;;;;;;;;;;;;;;;20.62;49.43;102657.25;2087417;28;955;-75
2021/03/06 04:16:58;;;;;;;;;;;;;;;20.61;49.20;102660.38;2085574;28;978;-75
2021/03/06 04:18:24;;;;;;;;;;;;;;;20.62;49.38;102667.75;2088138;28;1510;-75
2021/03/06 04:19:50;;;;;;;;;;;;;;;20.61;49.43;102657.53;2089636;28;657;-75
2021/03/06 04:21:16;;;;;;;;;;;;;;;20.61;49.24;102664.06;2086036;28;1910;-75
2021/03/06 04:22:42;;;;;;;;;;;;;;;20.61;49.25;102668.91;2089949;28;1653;-75
2021/03/06 04:24:08;;;;;;;;;;;;;;;20.61;49.24;102671.75;2072472;28;1727;-75
2021/03/06 04:25:47;;;;;;;;;;;;;;;20.60;49.40;102656.72;2071761;28;1793;-75
2021/03/06 04:27:13;;;;;;;;;;;;;;;20.62;49.40;102673.44;2072670;28;1543;-75
2021/03/06 04:28:39;;;;;;;;;;;;;;;20.60;49.24;102667.25;2074008;28;1688;-75
2021/03/06 04:30:05;;;;;;;;;;;;;;;20.60;49.30;102673.78;2074402;28;2364;-75
2021/03/06 04:31:31;;;;;;;;;;;;;;;20.60;49.31;102673.78;2074247;28;1549;-75
2021/03/06 04:32:57;;;;;;;;;;;;;;;20.60;49.31;102673.78;2073519;28;1588;-75
2021/03/06 04:34:23;;;;;;;;;;;;;;;20.60;49.26;102672.94;2073839;28;1593;-75
2021/03/06 04:35:49;;;;;;;;;;;;;;;20.59;49.23;102669.25;2074354;28;1795;-75
2021/03/06 04:37:15;;;;;;;;;;;;;;;20.59;49.26;102665.53;2072636;28;1500;-75
2021/03/06 04:38:41;;;;;;;;;;;;;;;20.59;49.39;102674.94;2070740;28;1565;-75
2021/03/06 04:40:07;;;;;;;;;;;;;;;20.59;49.28;102669.25;2070108;28;1026;-76
2021/03/06 04:41:33;;;;;;;;;;;;;;;20.59;49.31;102672.09;2068259;28;1061;-75
2021/03/06 04:42:59;;;;;;;;;;;;;;;20.58;49.29;102681.75;2071274;28;1616;-77
2021/03/06 04:44:25;;;;;;;;;;;;;;;20.59;49.31;102677.78;2072257;28;1630;-74
2021/03/06 04:45:52;;;;;;;;;;;;;;;20.59;49.42;102679.75;2073907;28;1862;-74
2021/03/06 04:47:18;;;;;;;;;;;;;;;20.58;49.54;102681.75;2073533;28;1912;-74
2021/03/06 04:48:44;;;;;;;;;;;;;;;20.60;49.66;102681.47;2074070;28;1511;-74
2021/03/06 04:50:10;;;;;;;;;;;;;;;20.60;49.80;102675.78;2074037;28;1749;-73
2021/03/06 04:51:36;;;;;;;;;;;;;;;20.60;nan;102684.31;2072947;28;1496;-73
2021/03/06 04:53:02;;;;;;;;;;;;;;;20.60;49.77;102684.31;2072604;28;1590;-74
2021/03/06 04:54:28;;;;;;;;;;;;;;;20.58;49.79;102684.59;2072210;28;1772;-74
2021/03/06 04:56:07;;;;;;;;;;;;;;;20.59;49.82;102685.44;2074159;28;984;-74
2021/03/06 04:57:33;;;;;;;;;;;;;;;20.58;49.79;102684.59;2073162;28;1725;-74
2021/03/06 04:58:59;;;;;;;;;;;;;;;20.58;49.58;102683.75;2074067;28;1646;-73
2021/03/06 05:00:25;;;;;;;;;;;;;;;20.58;49.56;102683.75;2069010;28;1642;-73
2021/03/06 05:01:52;;;;;;;;;;;;;;;20.57;49.60;102682.06;2070766;28;1943;-74
2021/03/06 05:03:18;;;;;;;;;;;;;;;20.58;49.75;102687.44;2073137;28;1748;-74
2021/03/06 05:04:44;;;;;;;;;;;;;;;;;;2066364;28;669;-74
2021/03/06 05:06:10;;;;;;;;;;;;;;;20.57;49.63;102679.22;2070916;28;1698;-73
2021/03/06 05:07:36;;;;;;;;;;;;;;;20.56;49.64;102686.88;2072510;28;1603;-74
2021/03/06 05:09:02;;;;;;;;;;;;;;;20.57;49.72;102687.75;2073229;28;1616;-73
2021/03/06 05:10:28;;;;;;;;;;;;;;;;;;2074037;28;2032;-73
2021/03/06 05:11:54;;;;;;;;;;;;;;;20.56;49.61;102683.22;2070178;28;1904;-73
2021/03/06 05:13:20;;;;;;;;;;;;;;;;;;2073413;28;1571;-72
2021/03/06 05:14:46;;;;;;;;;;;;;;;20.56;49.67;102692.56;2072033;28;1676;-72
2021/03/06 05:16:12;;;;;;;;;;;;;;;20.57;49.65;102687.75;2067893;28;1242;-73
2021/03/06 05:17:39;;;;;;;;;;;;;;;20.57;49.60;102693.44;2072993;28;1632;-73
2021/03/06 05:19:05;;;;;;;;;;;;;;;20.57;49.75;102687.75;2073272;28;1721;-73
2021/03/06 05:20:31;;;;;;;;;;;;;;;20.56;49.71;102688.91;2073540;28;1796;-73
2021/03/06 05:21:57;;;;;;;;;;;;;;;20.56;49.75;102694.59;2069050;28;1041;-73
2021/03/06 05:23:23;;;;;;;;;;;;;;;20.56;49.76;102697.44;2082135;28;2084;-73
2021/03/06 05:24:49;;;;;;;;;;;;;;;20.55;49.60;102699.44;2088962;28;1647;-73
2021/03/06 05:26:29;;;;;;;;;;;;;;;20.55;49.68;102693.75;2086426;28;1597;-72
2021/03/06 05:27:55;;;;;;;;;;;;;;;20.56;49.71;102705.97;2088890;28;1603;-74
2021/03/06 05:29:21;;;;;;;;;;;;;;;20.56;49.60;102700.28;2087363;28;1716;-74
2021/03/06 05:30:47;;;;;;;;;;;;;;;20.56;49.68;102703.13;2082255;28;610;-75
2021/03/06 05:32:14;;;;;;;;;;;;;;;20.56;49.77;102698.28;2089724;28;1850;-74
2021/03/06 05:33:40;;;;;;;;;;;;;;;20.55;49.64;102710.81;2088643;28;2002;-74
2021/03/06 05:35:06;;;;;;;;;;;;;;;20.56;49.73;102711.66;2089383;28;1824;-74
2021/03/06 05:36:32;;;;;;;;;;;;;;;20.56;49.62;102714.50;2084384;28;1721;-74
2021/03/06 05:37:58;;;;;;;;;;;;;;;20.56;49.62;102712.47;2090578;28;910;-75
2021/03/06 05:39:24;;;;;;;;;;;;;;;20.55;49.65;102712.81;2088466;28;958;-74
2021/03/06 05:40:50;;;;;;;;;;;;;;;20.54;49.61;102713.94;2087188;28;1911;-75
2021/03/06 05:42:17;;;;;;;;;;;;;;;20.54;49.77;102705.41;2090117;28;1724;-75
2021/03/06 05:43:42;;;;;;;;;;;;;;;20.54;49.95;102709.13;2083895;28;1088;-75
2021/03/06 05:45:09;;;;;;;;;;;;;;;20.54;49.64;102711.97;2088892;28;1915;-75
2021/03/06 05:46:35;;;;;;;;;;;;;;;20.54;49.63;102714.81;2082666;28;657;-75
2021/03/06 05:48:01;;;;;;;;;;;;;;;20.54;49.79;102705.41;2088642;28;1073;-75
2021/03/06 05:49:26;;;;;;;;;;;;;;;20.55;49.76;102709.97;2087011;28;1514;-75
2021/03/06 05:50:53;;;;;;;;;;;;;;;20.54;49.62;102711.97;2088762;28;1847;-75
2021/03/06 05:52:19;;;;;;;;;;;;;;;20.54;49.64;102711.09;2088031;28;2777;-74
2021/03/06 05:53:46;;;;;;;;;;;;;;;20.54;49.62;102711.09;2088718;28;1577;-74
2021/03/06 05:55:12;;;;;;;;;;;;;;;20.53;49.70;102710.25;2087556;28;1643;-74
2021/03/06 05:56:52;;;;;;;;;;;;;;;20.53;49.61;102703.69;2085415;28;1625;-75
2021/03/06 05:58:17;;;;;;;;;;;;;;;20.53;49.56;102712.22;2088116;28;1737;-75
2021/03/06 05:59:44;;;;;;;;;;;;;;;20.53;49.70;102703.69;2088427;28;1791;-75
2021/03/06 06:01:10;;;;;;;;;;;;;;;20.52;49.56;102708.53;2089014;28;1906;-75
2021/03/06 06:02:36;;;;;;;;;;;;;;;20.53;49.50;102706.53;2086696;28;1660;-75
2021/03/06 06:04:02;;;;;;;;;;;;;;;20.52;49.50;102713.38;2090099;28;1562;-73
2021/03/06 06:05:28;;;;;;;;;;;;;;;20.52;49.45;102704.84;2089711;28;1631;-72
2021/03/06 06:06:53;;;;;;;;;;;;;;;20.53;49.61;102709.38;2089031;28;1760;-73
2021/03/06 06:08:20;;;;;;;;;;;;;;;20.52;49.58;102708.53;2089279;28;1828;-73
2021/03/06 06:09:45;;;;;;;;;;;;;;;20.52;49.52;102711.38;2088502;28;2008;-73
2021/03/06 06:11:12;;;;;;;;;;;;;;;20.52;49.47;102708.53;2082638;28;929;-73
2021/03/06 06:12:38;;;;;;;;;;;;;;;20.52;49.47;102710.53;2088072;28;1665;-73
2021/03/06 06:14:04;;;;;;;;;;;;;;;20.52;49.49;102705.69;2090415;28;1680;-73
2021/03/06 06:15:29;;;;;;;;;;;;;;;20.53;49.40;102703.69;2085536;28;1639;-73
2021/03/06 06:16:56;;;;;;;;;;;;;;;20.52;49.58;102708.53;2083752;28;1657;-73
2021/03/06 06:18:22;;;;;;;;;;;;;;;20.51;49.52;102701.16;2084645;28;874;-73
2021/03/06 06:19:49;;;;;;;;;;;;;;;20.52;49.38;102710.53;2087892;28;1751;-73
2021/03/06 06:21:15;;;;;;;;;;;;;;;20.52;49.89;102707.69;2090141;28;2355;-73
2021/03/06 06:22:41;;;;;;;;;;;;;;;20.51;49.51;102709.69;2089381;28;1740;-73
2021/03/06 06:24:07;;;;;;;;;;;;;;;20.51;49.42;102712.53;2088977;28;1661;-73
2021/03/06 06:25:33;;;;;;;;;;;;;;;20.51;49.44;102715.38;2089944;28;1771;-73
2021/03/06 06:27:14;;;;;;;;;;;;;;;20.52;49.29;102707.69;2089888;28;1543;-76
2021/03/06 06:28:40;;;;;;;;;;;;;;;20.51;49.48;102711.66;2090918;28;1689;-76
2021/03/06 06:30:05;;;;;;;;;;;;;;;20.51;49.39;102705.97;2084649;28;2232;-76
2021/03/06 06:31:32;;;;;;;;;;;;;;;20.51;49.43;102709.69;2085097;28;2826;-75
2021/03/06 06:32:58;;;;;;;;;;;;;;;20.50;49.48;102713.69;2088303;28;1764;-76
2021/03/06 06:34:24;;;;;;;;;;;;;;;20.51;49.36;102714.53;2087868;28;1641;-76
2021/03/06 06:35:49;;;;;;;;;;;;;;;20.51;49.33;102712.53;2091389;28;1683;-77
2021/03/06 06:37:16;;;;;;;;;;;;;;;20.51;49.36;102711.66;2089149;28;1660;-79
2021/03/06 06:38:41;;;;;;;;;;;;;;;20.51;49.47;102720.19;2083773;28;593;-78
2021/03/06 06:40:08;;;;;;;;;;;;;;;20.51;49.37;102714.53;2090569;28;1836;-78
2021/03/06 06:41:34;;;;;;;;;;;;;;;20.51;49.27;102723.03;2088707;28;1910;-78
2021/03/06 06:42:59;;;;;;;;;;;;;;;20.50;49.32;102710.00;2087943;28;1882;-79
2021/03/06 06:44:26;;;;;;;;;;;;;;;20.50;49.31;102716.53;2087774;28;1130;-78
2021/03/06 06:45:52;;;;;;;;;;;;;;;20.50;49.29;102721.38;2091360;28;1734;-79
2021/03/06 06:47:19;;;;;;;;;;;;;;;20.49;49.31;102720.53;2090895;28;2097;-78
2021/03/06 06:48:45;;;;;;;;;;;;;;;20.49;49.39;102714.84;2089784;28;1684;-79
2021/03/06 06:50:11;;;;;;;;;;;;;;;20.49;49.32;102723.38;2090083;28;1656;-79
2021/03/06 06:51:36;;;;;;;;;;;;;;;20.49;49.28;102725.38;2091017;28;1782;-78
2021/03/06 06:53:03;;;;;;;;;;;;;;;20.49;49.39;102725.38;2090546;28;1732;-78
2021/03/06 06:54:29;;;;;;;;;;;;;;;20.49;49.27;102723.38;2086736;28;1729;-79
2021/03/06 06:55:55;;;;;;;;;;;;;;;20.49;49.35;102728.22;2090345;28;1612;-79
2021/03/06 06:57:40;;;;;;;;;;;;;;;20.48;49.17;102733.03;2091290;28;1886;-79
2021/03/06 06:59:08;;;;;;;;;;;;;;;20.49;49.24;102736.75;2088369;28;1786;-79
2021/03/06 07:00:34;;;;;;;;;;;;;;;20.49;49.30;102736.75;2091417;28;1663;-79
2021/03/06 07:02:00;;;;;;;;;;;;;;;20.49;49.35;102733.91;2091148;28;1744;-79
2021/03/06 07:03:27;;;;;;;;;;;;;;;20.48;49.21;102735.88;2090158;28;827;-78
2021/03/06 07:04:53;;;;;;;;;;;;;;;20.47;49.30;102735.03;2091378;28;1953;-79
2021/03/06 07:06:19;;;;;;;;;;;;;;;20.47;49.15;102735.03;2091010;28;1582;-79
2021/03/06 07:07:44;;;;;;;;;;;;;;;20.46;49.29;102724.81;2089902;28;1860;-78
2021/03/06 07:09:11;;;;;;;;;;;;;;;20.46;49.21;102736.19;2086467;28;1690;-79
2021/03/06 07:10:36;;;;;;;;;;;;;;;20.46;49.22;102726.81;2090482;28;1832;-81
2021/03/06 07:12:03;;;;;;;;;;;;;;;20.47;49.17;102731.34;2089992;28;1881;-81
2021/03/06 07:13:28;;;;;;;;;;;;;;;20.46;49.21;102729.66;2089226;28;1704;-79
2021/03/06 07:14:55;;;;;;;;;;;;;;;20.46;49.26;102733.34;2090772;28;1664;-79
2021/03/06 07:16:21;;;;;;;;;;;;;;;20.47;49.20;102734.19;2090895;28;925;-78
2021/03/06 07:17:47;;;;;;;;;;;;;;;20.45;49.23;102731.66;2091718;28;1724;-79
2021/03/06 07:19:13;;;;;;;;;;;;;;;20.46;49.21;102739.03;2089784;28;1788;-79
2021/03/06 07:20:39;;;;;;;;;;;;;;;20.47;49.20;102737.03;2090447;28;1779;-79
2021/03/06 07:22:04;;;;;;;;;;;;;;;20.45;49.14;102731.66;2088104;28;1554;-79
2021/03/06 07:23:31;;;;;;;;;;;;;;;20.46;49.20;102739.03;2086014;28;1680;-79
2021/03/06 07:24:56;;;;;;;;;;;;;;;20.45;49.19;102731.66;2089789;28;1839;-79
2021/03/06 07:26:23;;;;;;;;;;;;;;;20.44;49.08;102729.94;2089537;28;1815;-79
2021/03/06 07:28:00;;;;;;;;;;;;;;;20.44;49.31;102729.94;2090770;28;1628;-79
2021/03/06 07:29:25;;;;;;;;;;;;;;;20.45;49.27;102736.47;2088222;28;1918;-78
2021/03/06 07:30:51;;;;;;;;;;;;;;;20.46;49.13;102732.50;2089364;28;1843;-78
2021/03/06 07:32:18;;;;;;;;;;;;;;;20.46;49.05;102738.19;2088040;28;1649;-78
2021/03/06 07:33:44;;;;;;;;;;;;;;;20.46;49.22;102741.03;2084993;28;1708;-78